createdAt,value
2018-11-29T00:00:09.109Z,0
2018-11-29T00:01:19.198Z,0
2018-11-29T00:02:28.281Z,0
2018-11-29T00:03:37.586Z,0
2018-11-29T00:04:47.414Z,0
2018-11-29T00:05:56.981Z,0
2018-11-29T00:07:06.558Z,0
2018-11-29T00:08:16.125Z,0
2018-11-29T00:09:25.950Z,0
2018-11-29T00:10:35.776Z,0
2018-11-29T00:11:45.659Z,0
2018-11-29T00:12:55.233Z,0
2018-11-29T00:14:04.540Z,0
2018-11-29T00:15:14.108Z,0
2018-11-29T00:16:23.689Z,0
2018-11-29T00:17:33.518Z,0
2018-11-29T00:18:43.609Z,0
2018-11-29T00:19:53.176Z,0
2018-11-29T00:21:03.008Z,0
2018-11-29T00:22:12.855Z,0
2018-11-29T00:23:22.470Z,0
2018-11-29T00:24:32.304Z,0
2018-11-29T00:25:42.138Z,0
2018-11-29T00:26:51.703Z,0
2018-11-29T00:28:01.530Z,0
2018-11-29T00:29:11.118Z,0
2018-11-29T00:30:20.974Z,0
2018-11-29T00:31:30.546Z,0
2018-11-29T00:32:40.379Z,0
2018-11-29T00:33:49.955Z,0
2018-11-29T00:35:00.053Z,0
2018-11-29T00:36:09.629Z,0
2018-11-29T00:37:19.461Z,0
2018-11-29T00:38:29.034Z,0
2018-11-29T00:39:38.864Z,0
2018-11-29T00:40:48.696Z,0
2018-11-29T00:41:58.528Z,0
2018-11-29T00:43:08.093Z,0
2018-11-29T00:44:17.711Z,0
2018-11-29T00:45:27.284Z,0
2018-11-29T00:46:36.905Z,0
2018-11-29T00:47:46.735Z,0
2018-11-29T00:48:56.309Z,0
2018-11-29T00:50:06.139Z,0
2018-11-29T00:51:15.967Z,0
2018-11-29T00:52:25.851Z,0
2018-11-29T00:53:35.941Z,0
2018-11-29T00:54:46.028Z,0
2018-11-29T00:55:55.605Z,0
2018-11-29T00:57:05.437Z,0
2018-11-29T00:58:15.264Z,0
2018-11-29T00:59:24.829Z,0
2018-11-29T01:00:34.657Z,0
2018-11-29T01:01:44.740Z,0
2018-11-29T01:02:54.334Z,0
2018-11-29T01:04:04.276Z,0
2018-11-29T01:05:14.136Z,0
2018-11-29T01:06:23.969Z,0
2018-11-29T01:07:33.798Z,0
2018-11-29T01:08:43.896Z,0
2018-11-29T01:09:53.987Z,0
2018-11-29T01:11:03.565Z,0
2018-11-29T01:12:13.389Z,0
2018-11-29T01:13:22.957Z,0
2018-11-29T01:14:32.794Z,0
2018-11-29T01:15:42.360Z,0
2018-11-29T01:16:51.405Z,0
2018-11-29T01:18:01.234Z,0
2018-11-29T01:19:11.102Z,0
2018-11-29T01:20:20.926Z,0
2018-11-29T01:21:30.760Z,0
2018-11-29T01:22:40.859Z,0
2018-11-29T01:23:50.167Z,0
2018-11-29T01:24:59.738Z,0
2018-11-29T01:26:09.826Z,0
2018-11-29T01:27:19.703Z,0
2018-11-29T01:28:29.015Z,0
2018-11-29T01:29:38.585Z,0
2018-11-29T01:30:48.432Z,0
2018-11-29T01:31:57.997Z,0
2018-11-29T01:33:07.569Z,0
2018-11-29T01:34:17.400Z,0
2018-11-29T01:35:27.230Z,0
2018-11-29T01:36:37.060Z,0
2018-11-29T01:37:47.153Z,0
2018-11-29T01:38:56.976Z,0
2018-11-29T01:40:06.811Z,0
2018-11-29T01:41:16.380Z,0
2018-11-29T01:42:26.213Z,0
2018-11-29T01:43:36.309Z,0
2018-11-29T01:44:46.451Z,0
2018-11-29T01:45:55.756Z,0
2018-11-29T01:47:05.362Z,0
2018-11-29T01:48:14.929Z,0
2018-11-29T01:49:24.763Z,0
2018-11-29T01:50:34.071Z,0
2018-11-29T01:51:44.167Z,0
2018-11-29T01:52:54.257Z,0
2018-11-29T01:54:04.355Z,0
2018-11-29T01:55:14.457Z,0
2018-11-29T01:56:24.603Z,0
2018-11-29T01:57:34.434Z,0
2018-11-29T01:58:44.004Z,0
2018-11-29T01:59:53.572Z,0
2018-11-29T02:01:03.664Z,0
2018-11-29T02:02:13.234Z,0
2018-11-29T02:03:23.073Z,0
2018-11-29T02:04:32.903Z,0
2018-11-29T02:05:42.737Z,0
2018-11-29T02:06:52.047Z,0
2018-11-29T02:08:01.631Z,0
2018-11-29T02:09:11.463Z,0
2018-11-29T02:10:21.040Z,0
2018-11-29T02:11:30.616Z,0
2018-11-29T02:12:40.449Z,0
2018-11-29T02:13:50.540Z,0
2018-11-29T02:15:00.635Z,0
2018-11-29T02:16:10.467Z,0
2018-11-29T02:17:19.772Z,0
2018-11-29T02:18:29.387Z,0
2018-11-29T02:19:39.261Z,0
2018-11-29T02:20:49.093Z,0
2018-11-29T02:21:58.406Z,0
2018-11-29T02:23:08.496Z,0
2018-11-29T02:24:18.588Z,0
2018-11-29T02:25:28.676Z,0
2018-11-29T02:26:38.503Z,0
2018-11-29T02:27:48.086Z,0
2018-11-29T02:28:57.656Z,0
2018-11-29T02:30:07.515Z,0
2018-11-29T02:31:17.612Z,0
2018-11-29T02:32:27.452Z,0
2018-11-29T02:33:37.548Z,0
2018-11-29T02:34:47.387Z,0
2018-11-29T02:35:57.233Z,0
2018-11-29T02:37:06.290Z,0
2018-11-29T02:38:16.131Z,0
2018-11-29T02:39:26.228Z,0
2018-11-29T02:40:36.058Z,0
2018-11-29T02:41:45.909Z,0
2018-11-29T02:42:55.231Z,0
2018-11-29T02:44:05.323Z,0
2018-11-29T02:45:15.419Z,0
2018-11-29T02:46:25.529Z,0
2018-11-29T02:47:35.631Z,0
2018-11-29T02:48:45.733Z,0
2018-11-29T02:49:55.848Z,0
2018-11-29T02:51:05.458Z,0
2018-11-29T02:52:15.559Z,0
2018-11-29T02:53:25.392Z,0
2018-11-29T02:54:35.234Z,0
2018-11-29T02:55:45.335Z,0
2018-11-29T02:56:55.489Z,0
2018-11-29T02:58:05.060Z,0
2018-11-29T02:59:15.155Z,0
2018-11-29T03:00:25.250Z,0
2018-11-29T03:01:35.090Z,0
2018-11-29T03:02:44.661Z,0
2018-11-29T03:03:54.497Z,0
2018-11-29T03:05:04.085Z,0
2018-11-29T03:06:13.976Z,0
2018-11-29T03:07:23.810Z,0
2018-11-29T03:08:33.639Z,0
2018-11-29T03:09:43.739Z,0
2018-11-29T03:10:53.582Z,0
2018-11-29T03:12:03.681Z,0
2018-11-29T03:13:12.997Z,0
2018-11-29T03:14:23.096Z,0
2018-11-29T03:15:33.246Z,0
2018-11-29T03:16:43.080Z,0
2018-11-29T03:17:52.722Z,0
2018-11-29T03:19:02.834Z,0
2018-11-29T03:20:12.713Z,0
2018-11-29T03:21:21.793Z,0
2018-11-29T03:22:31.894Z,0
2018-11-29T03:23:41.741Z,0
2018-11-29T03:24:51.836Z,0
2018-11-29T03:26:01.673Z,0
2018-11-29T03:27:11.511Z,0
2018-11-29T03:28:21.110Z,0
2018-11-29T03:29:30.944Z,0
2018-11-29T03:30:40.810Z,0
2018-11-29T03:31:50.990Z,0
2018-11-29T03:33:01.121Z,0
2018-11-29T03:34:10.702Z,0
2018-11-29T03:35:20.542Z,0
2018-11-29T03:36:30.646Z,0
2018-11-29T03:37:40.241Z,0
2018-11-29T03:38:49.812Z,0
2018-11-29T03:39:59.134Z,0
2018-11-29T03:41:09.017Z,0
2018-11-29T03:42:18.886Z,0
2018-11-29T03:43:28.985Z,0
2018-11-29T03:44:39.084Z,0
2018-11-29T03:45:48.916Z,0
2018-11-29T03:46:59.015Z,0
2018-11-29T03:48:08.604Z,0
2018-11-29T03:49:18.704Z,0
2018-11-29T03:50:28.556Z,0
2018-11-29T03:51:39.198Z,0
2018-11-29T03:52:49.090Z,0
2018-11-29T03:53:58.942Z,0
2018-11-29T03:55:09.072Z,0
2018-11-29T03:56:19.193Z,0
2018-11-29T03:57:28.781Z,0
2018-11-29T03:58:38.361Z,0
2018-11-29T03:59:47.938Z,0
2018-11-29T04:00:57.783Z,0
2018-11-29T04:02:07.622Z,0
2018-11-29T04:03:17.457Z,0
2018-11-29T04:04:27.296Z,0
2018-11-29T04:05:37.774Z,0
2018-11-29T04:06:47.884Z,0
2018-11-29T04:07:57.721Z,0
2018-11-29T04:09:07.563Z,0
2018-11-29T04:10:17.709Z,0
2018-11-29T04:11:27.543Z,0
2018-11-29T04:12:37.371Z,0
2018-11-29T04:13:47.212Z,0
2018-11-29T04:14:57.306Z,0
2018-11-29T04:16:07.136Z,0
2018-11-29T04:17:16.712Z,0
2018-11-29T04:18:26.817Z,0
2018-11-29T04:19:36.926Z,0
2018-11-29T04:20:46.246Z,0
2018-11-29T04:21:56.341Z,0
2018-11-29T04:23:06.267Z,0
2018-11-29T04:24:15.843Z,0
2018-11-29T04:25:25.418Z,0
2018-11-29T04:26:35.519Z,0
2018-11-29T04:27:45.354Z,0
2018-11-29T04:28:55.203Z,0
2018-11-29T04:30:05.043Z,0
2018-11-29T04:31:15.148Z,0
2018-11-29T04:32:24.994Z,0
2018-11-29T04:33:35.102Z,0
2018-11-29T04:34:44.948Z,0
2018-11-29T04:35:54.793Z,0
2018-11-29T04:37:04.373Z,0
2018-11-29T04:38:13.957Z,0
2018-11-29T04:39:24.055Z,0
2018-11-29T04:40:34.151Z,0
2018-11-29T04:41:43.984Z,0
2018-11-29T04:42:53.813Z,0
2018-11-29T04:44:04.883Z,0
2018-11-29T04:45:14.991Z,0
2018-11-29T04:46:24.827Z,0
2018-11-29T04:47:34.662Z,0
2018-11-29T04:48:43.971Z,0
2018-11-29T04:49:53.812Z,0
2018-11-29T04:51:03.916Z,0
2018-11-29T04:52:14.014Z,0
2018-11-29T04:53:23.337Z,0
2018-11-29T04:54:33.499Z,0
2018-11-29T04:55:43.608Z,0
2018-11-29T04:56:53.710Z,0
2018-11-29T04:58:03.858Z,0
2018-11-29T04:59:13.702Z,0
2018-11-29T05:00:23.807Z,0
2018-11-29T05:01:33.635Z,0
2018-11-29T05:02:43.473Z,0
2018-11-29T05:03:53.607Z,0
2018-11-29T05:05:03.448Z,0
2018-11-29T05:06:12.499Z,0
2018-11-29T05:07:22.339Z,0
2018-11-29T05:08:32.185Z,0
2018-11-29T05:09:42.026Z,0
2018-11-29T05:10:51.859Z,0
2018-11-29T05:12:01.172Z,0
2018-11-29T05:13:10.489Z,0
2018-11-29T05:14:20.324Z,0
2018-11-29T05:15:29.905Z,0
2018-11-29T05:16:39.740Z,0
2018-11-29T05:17:49.051Z,0
2018-11-29T05:18:59.158Z,0
2018-11-29T05:20:09.310Z,0
2018-11-29T05:21:19.408Z,0
2018-11-29T05:22:28.992Z,0
2018-11-29T05:23:39.095Z,0
2018-11-29T05:24:48.930Z,0
2018-11-29T05:25:58.817Z,0
2018-11-29T05:27:08.388Z,0
2018-11-29T05:28:18.226Z,0
2018-11-29T05:29:28.329Z,0
2018-11-29T05:30:38.165Z,0
2018-11-29T05:31:48.258Z,0
2018-11-29T05:32:58.356Z,0
2018-11-29T05:34:08.187Z,0
2018-11-29T05:35:18.033Z,0
2018-11-29T05:36:28.135Z,0
2018-11-29T05:37:38.235Z,0
2018-11-29T05:38:47.829Z,0
2018-11-29T05:39:57.924Z,0
2018-11-29T05:41:08.019Z,0
2018-11-29T05:42:17.341Z,0
2018-11-29T05:43:27.435Z,0
2018-11-29T05:44:37.265Z,0
2018-11-29T05:45:46.846Z,0
2018-11-29T05:46:56.720Z,0
2018-11-29T05:48:06.818Z,0
2018-11-29T05:49:16.967Z,0
2018-11-29T05:50:26.545Z,0
2018-11-29T05:51:36.373Z,0
2018-11-29T05:52:46.873Z,0
2018-11-29T05:53:56.704Z,0
2018-11-29T05:55:06.545Z,0
2018-11-29T05:56:16.644Z,0
2018-11-29T05:57:26.744Z,0
2018-11-29T05:58:36.582Z,0
2018-11-29T05:59:46.156Z,0
2018-11-29T06:00:56.034Z,0
2018-11-29T06:02:05.602Z,0
2018-11-29T06:03:15.178Z,0
2018-11-29T06:04:25.012Z,0
2018-11-29T06:05:34.584Z,0
2018-11-29T06:06:44.729Z,0
2018-11-29T06:07:54.298Z,0
2018-11-29T06:09:04.128Z,0
2018-11-29T06:10:13.964Z,0
2018-11-29T06:11:23.278Z,0
2018-11-29T06:12:33.659Z,0
2018-11-29T06:13:43.255Z,0
2018-11-29T06:14:52.301Z,0
2018-11-29T06:16:02.402Z,0
2018-11-29T06:17:11.974Z,0
2018-11-29T06:18:21.600Z,0
2018-11-29T06:19:31.168Z,0
2018-11-29T06:20:40.998Z,0
2018-11-29T06:21:50.828Z,0
2018-11-29T06:23:00.663Z,0
2018-11-29T06:24:13.503Z,0
2018-11-29T06:25:23.245Z,0
2018-11-29T06:26:33.356Z,0
2018-11-29T06:27:42.664Z,0
2018-11-29T06:28:51.972Z,0
2018-11-29T06:30:02.065Z,0
2018-11-29T06:31:11.911Z,0
2018-11-29T06:32:21.484Z,0
2018-11-29T06:33:31.574Z,0
2018-11-29T06:34:41.670Z,0
2018-11-29T06:35:51.244Z,0
2018-11-29T06:37:01.079Z,0
2018-11-29T06:38:11.173Z,0
2018-11-29T06:39:20.999Z,0
2018-11-29T06:40:30.829Z,0
2018-11-29T06:41:40.399Z,0
2018-11-29T06:42:49.970Z,0
2018-11-29T06:44:00.061Z,4
2018-11-29T06:45:10.156Z,4
2018-11-29T06:46:19.988Z,0
2018-11-29T06:47:29.310Z,4
2018-11-29T06:48:38.884Z,4
2018-11-29T06:49:48.463Z,4
2018-11-29T06:50:58.302Z,8
2018-11-29T06:52:08.396Z,8
2018-11-29T06:53:18.232Z,12
2018-11-29T06:54:27.803Z,12
2018-11-29T06:55:37.633Z,12
2018-11-29T06:56:47.469Z,16
2018-11-29T06:57:57.567Z,16
2018-11-29T06:59:07.395Z,20
2018-11-29T07:00:17.226Z,20
2018-11-29T07:01:26.795Z,28
2018-11-29T07:02:36.890Z,28
2018-11-29T07:03:46.734Z,36
2018-11-29T07:04:56.862Z,40
2018-11-29T07:06:06.736Z,40
2018-11-29T07:07:16.561Z,48
2018-11-29T07:08:26.667Z,52
2018-11-29T07:09:36.765Z,56
2018-11-29T07:10:46.863Z,60
2018-11-29T07:11:56.434Z,60
2018-11-29T07:13:06.006Z,64
2018-11-29T07:14:15.585Z,72
2018-11-29T07:15:25.422Z,76
2018-11-29T07:16:35.262Z,80
2018-11-29T07:17:45.360Z,88
2018-11-29T07:18:55.202Z,84
2018-11-29T07:20:05.293Z,88
2018-11-29T07:21:15.127Z,104
2018-11-29T07:22:24.959Z,116
2018-11-29T07:23:34.789Z,136
2018-11-29T07:24:44.356Z,152
2018-11-29T07:25:54.190Z,172
2018-11-29T07:27:03.770Z,184
2018-11-29T07:28:13.659Z,192
2018-11-29T07:29:24.129Z,204
2018-11-29T07:30:34.235Z,212
2018-11-29T07:31:43.596Z,224
2018-11-29T07:32:52.967Z,240
2018-11-29T07:34:02.617Z,240
2018-11-29T07:35:12.190Z,244
2018-11-29T07:36:22.028Z,244
2018-11-29T07:37:32.124Z,252
2018-11-29T07:38:41.962Z,264
2018-11-29T07:39:51.850Z,264
2018-11-29T07:41:01.695Z,268
2018-11-29T07:42:11.791Z,268
2018-11-29T07:43:21.669Z,280
2018-11-29T07:44:31.778Z,300
2018-11-29T07:45:41.660Z,336
2018-11-29T07:46:51.226Z,364
2018-11-29T07:48:01.321Z,412
2018-11-29T07:49:11.150Z,476
2018-11-29T07:50:20.986Z,540
2018-11-29T07:51:30.553Z,528
2018-11-29T07:52:40.390Z,508
2018-11-29T07:53:50.018Z,520
2018-11-29T07:54:59.858Z,524
2018-11-29T07:56:09.431Z,560
2018-11-29T07:57:19.575Z,564
2018-11-29T07:58:28.912Z,560
2018-11-29T07:59:38.748Z,612
2018-11-29T08:00:48.846Z,652
2018-11-29T08:01:58.945Z,692
2018-11-29T08:03:09.035Z,736
2018-11-29T08:04:19.147Z,864
2018-11-29T08:05:28.727Z,888
2018-11-29T08:06:38.876Z,900
2018-11-29T08:07:52.548Z,936
2018-11-29T08:09:02.124Z,984
2018-11-29T08:10:11.439Z,1012
2018-11-29T08:11:21.549Z,1056
2018-11-29T08:12:31.639Z,1036
2018-11-29T08:13:41.735Z,976
2018-11-29T08:14:51.569Z,952
2018-11-29T08:16:01.402Z,924
2018-11-29T08:17:11.241Z,940
2018-11-29T08:18:21.069Z,1000
2018-11-29T08:19:31.164Z,1000
2018-11-29T08:20:40.477Z,988
2018-11-29T08:21:50.311Z,996
2018-11-29T08:23:00.422Z,1016
2018-11-29T08:24:10.521Z,996
2018-11-29T08:25:20.358Z,988
2018-11-29T08:26:30.212Z,1020
2018-11-29T08:27:40.051Z,1060
2018-11-29T08:28:49.626Z,1088
2018-11-29T08:29:59.502Z,1132
2018-11-29T08:31:09.339Z,1192
2018-11-29T08:32:19.218Z,1296
2018-11-29T08:33:28.267Z,1436
2018-11-29T08:34:37.848Z,1444
2018-11-29T08:35:47.942Z,1440
2018-11-29T08:36:57.526Z,1428
2018-11-29T08:38:08.504Z,1448
2018-11-29T08:39:17.811Z,1488
2018-11-29T08:40:27.700Z,1492
2018-11-29T08:41:37.538Z,1468
2018-11-29T08:42:47.376Z,1472
2018-11-29T08:43:57.206Z,1572
2018-11-29T08:45:06.787Z,1568
2018-11-29T08:46:16.362Z,1512
2018-11-29T08:47:26.193Z,1512
2018-11-29T08:48:35.536Z,1444
2018-11-29T08:49:44.862Z,1364
2018-11-29T08:50:54.697Z,1344
2018-11-29T08:52:04.532Z,1340
2018-11-29T08:53:14.105Z,1304
2018-11-29T08:54:24.215Z,1284
2018-11-29T08:55:34.313Z,1308
2018-11-29T08:56:44.139Z,1348
2018-11-29T08:57:54.241Z,1368
2018-11-29T08:59:04.080Z,1400
2018-11-29T09:00:13.654Z,1400
2018-11-29T09:01:23.485Z,1424
2018-11-29T09:02:33.065Z,1488
2018-11-29T09:03:42.896Z,1572
2018-11-29T09:04:52.737Z,1672
2018-11-29T09:06:02.316Z,1764
2018-11-29T09:07:12.200Z,1808
2018-11-29T09:08:22.299Z,1780
2018-11-29T09:09:32.407Z,1696
2018-11-29T09:10:42.503Z,1556
2018-11-29T09:11:52.460Z,1432
2018-11-29T09:13:02.036Z,1420
2018-11-29T09:14:12.140Z,1492
2018-11-29T09:15:22.064Z,1580
2018-11-29T09:16:31.969Z,1616
2018-11-29T09:17:41.541Z,1612
2018-11-29T09:18:51.109Z,1612
2018-11-29T09:20:00.947Z,1692
2018-11-29T09:21:10.787Z,1792
2018-11-29T09:22:20.628Z,1872
2018-11-29T09:23:30.718Z,1896
2018-11-29T09:24:40.551Z,1964
2018-11-29T09:25:50.461Z,2024
2018-11-29T09:27:00.574Z,2068
2018-11-29T09:28:10.151Z,2128
2018-11-29T09:29:21.122Z,2180
2018-11-29T09:30:31.003Z,2240
2018-11-29T09:31:41.093Z,2248
2018-11-29T09:32:50.676Z,2176
2018-11-29T09:34:00.517Z,2116
2018-11-29T09:35:10.360Z,2136
2018-11-29T09:36:19.723Z,2260
2018-11-29T09:37:29.827Z,2444
2018-11-29T09:38:39.142Z,2712
2018-11-29T09:39:48.985Z,2944
2018-11-29T09:40:58.559Z,3016
2018-11-29T09:42:08.456Z,2888
2018-11-29T09:43:18.035Z,2676
2018-11-29T09:44:27.870Z,2532
2018-11-29T09:45:37.725Z,2452
2018-11-29T09:46:47.560Z,2420
2018-11-29T09:47:57.400Z,2296
2018-11-29T09:49:07.510Z,2096
2018-11-29T09:50:17.353Z,2032
2018-11-29T09:51:26.673Z,2312
2018-11-29T09:52:36.520Z,2532
2018-11-29T09:53:46.360Z,2540
2018-11-29T09:54:56.509Z,2492
2018-11-29T09:56:06.348Z,2460
2018-11-29T09:57:16.187Z,2504
2018-11-29T09:58:26.291Z,2580
2018-11-29T09:59:36.454Z,2680
2018-11-29T10:00:46.302Z,2728
2018-11-29T10:01:55.614Z,2756
2018-11-29T10:03:05.182Z,2756
2018-11-29T10:04:14.752Z,2744
2018-11-29T10:05:24.583Z,2716
2018-11-29T10:06:34.421Z,2672
2018-11-29T10:07:43.999Z,2612
2018-11-29T10:08:54.103Z,2536
2018-11-29T10:10:03.945Z,2460
2018-11-29T10:11:13.790Z,2412
2018-11-29T10:12:23.639Z,2420
2018-11-29T10:13:33.482Z,2460
2018-11-29T10:14:43.334Z,2540
2018-11-29T10:15:53.173Z,2656
2018-11-29T10:17:03.022Z,2788
2018-11-29T10:18:12.863Z,2892
2018-11-29T10:19:22.690Z,2944
2018-11-29T10:20:32.563Z,2972
2018-11-29T10:21:41.878Z,3008
2018-11-29T10:22:51.717Z,3048
2018-11-29T10:24:01.560Z,3156
2018-11-29T10:25:11.178Z,3296
2018-11-29T10:26:20.755Z,3428
2018-11-29T10:27:30.331Z,3520
2018-11-29T10:28:40.428Z,3584
2018-11-29T10:29:50.009Z,3592
2018-11-29T10:30:59.913Z,3540
2018-11-29T10:32:10.013Z,3448
2018-11-29T10:33:19.599Z,3356
2018-11-29T10:34:29.489Z,3304
2018-11-29T10:35:39.587Z,3292
2018-11-29T10:36:49.422Z,3148
2018-11-29T10:37:58.994Z,3024
2018-11-29T10:39:08.584Z,3004
2018-11-29T10:40:18.420Z,2996
2018-11-29T10:41:28.262Z,3008
2018-11-29T10:42:38.104Z,3100
2018-11-29T10:43:47.679Z,3132
2018-11-29T10:44:57.247Z,3040
2018-11-29T10:46:06.557Z,2920
2018-11-29T10:47:16.139Z,2644
2018-11-29T10:48:25.460Z,2308
2018-11-29T10:49:35.302Z,2108
2018-11-29T10:50:44.881Z,2076
2018-11-29T10:51:54.461Z,2288
2018-11-29T10:53:04.555Z,2608
2018-11-29T10:54:16.807Z,2936
2018-11-29T10:55:27.033Z,3204
2018-11-29T10:56:36.867Z,3312
2018-11-29T10:57:46.183Z,3208
2018-11-29T10:58:55.762Z,3084
2018-11-29T11:00:05.767Z,2928
2018-11-29T11:01:15.603Z,2808
2018-11-29T11:02:25.181Z,2712
2018-11-29T11:03:35.019Z,2572
2018-11-29T11:04:44.600Z,2468
2018-11-29T11:05:54.173Z,2408
2018-11-29T11:07:04.083Z,2268
2018-11-29T11:08:16.084Z,2080
2018-11-29T11:09:26.213Z,2104
2018-11-29T11:10:36.049Z,2076
2018-11-29T11:11:45.634Z,2072
2018-11-29T11:12:55.766Z,2164
2018-11-29T11:14:05.346Z,2352
2018-11-29T11:15:15.441Z,2616
2018-11-29T11:16:25.542Z,2716
2018-11-29T11:17:35.375Z,2784
2018-11-29T11:18:45.213Z,2800
2018-11-29T11:19:55.048Z,2700
2018-11-29T11:21:05.143Z,2760
2018-11-29T11:22:14.721Z,2880
2018-11-29T11:23:24.562Z,2860
2018-11-29T11:24:34.140Z,2836
2018-11-29T11:25:43.975Z,2964
2018-11-29T11:26:53.823Z,3196
2018-11-29T11:28:03.402Z,3088
2018-11-29T11:29:13.235Z,2828
2018-11-29T11:30:23.250Z,2644
2018-11-29T11:31:39.693Z,2708
2018-11-29T11:32:49.324Z,2836
2018-11-29T11:33:59.440Z,2924
2018-11-29T11:35:09.544Z,3000
2018-11-29T11:36:19.639Z,3100
2018-11-29T11:37:29.218Z,3240
2018-11-29T11:38:38.550Z,3332
2018-11-29T11:39:48.696Z,3328
2018-11-29T11:40:58.272Z,3272
2018-11-29T11:42:08.108Z,3188
2018-11-29T11:43:18.229Z,3112
2018-11-29T11:44:27.815Z,3084
2018-11-29T11:45:37.919Z,3036
2018-11-29T11:46:46.972Z,2928
2018-11-29T11:48:02.921Z,2788
2018-11-29T11:49:13.076Z,2760
2018-11-29T11:50:22.928Z,2828
2018-11-29T11:51:32.243Z,2840
2018-11-29T11:52:42.377Z,2768
2018-11-29T11:53:52.273Z,2720
2018-11-29T11:55:02.228Z,2680
2018-11-29T11:56:12.072Z,2636
2018-11-29T11:57:22.250Z,2692
2018-11-29T11:58:32.088Z,2748
2018-11-29T11:59:41.404Z,2784
2018-11-29T12:00:50.985Z,2840
2018-11-29T12:02:00.815Z,2908
2018-11-29T12:03:10.525Z,2916
2018-11-29T12:04:20.363Z,2860
2018-11-29T12:05:30.455Z,2800
2018-11-29T12:06:40.616Z,2752
2018-11-29T12:07:50.447Z,2720
2018-11-29T12:09:00.283Z,2720
2018-11-29T12:10:10.112Z,2740
2018-11-29T12:11:19.475Z,2760
2018-11-29T12:12:29.311Z,2748
2018-11-29T12:13:39.420Z,2688
2018-11-29T12:14:49.000Z,2556
2018-11-29T12:15:59.108Z,2384
2018-11-29T12:17:08.736Z,2180
2018-11-29T12:18:18.570Z,2008
2018-11-29T12:19:28.466Z,1896
2018-11-29T12:20:38.106Z,1800
2018-11-29T12:21:47.425Z,1704
2018-11-29T12:22:57.524Z,1648
2018-11-29T12:24:07.623Z,1644
2018-11-29T12:25:17.202Z,1664
2018-11-29T12:26:27.309Z,1712
2018-11-29T12:27:37.141Z,1696
2018-11-29T12:28:46.978Z,1616
2018-11-29T12:29:56.824Z,1776
2018-11-29T12:31:06.920Z,1784
2018-11-29T12:32:16.238Z,1888
2018-11-29T12:33:26.339Z,2076
2018-11-29T12:34:35.922Z,2100
2018-11-29T12:35:45.248Z,2112
2018-11-29T12:36:55.089Z,2120
2018-11-29T12:38:04.933Z,2128
2018-11-29T12:39:14.770Z,2184
2018-11-29T12:40:24.346Z,2264
2018-11-29T12:41:34.178Z,2372
2018-11-29T12:42:43.753Z,2444
2018-11-29T12:43:53.855Z,2476
2018-11-29T12:45:03.689Z,2516
2018-11-29T12:46:13.531Z,2540
2018-11-29T12:47:23.110Z,2504
2018-11-29T12:48:32.432Z,2476
2018-11-29T12:49:42.264Z,2456
2018-11-29T12:50:51.840Z,2388
2018-11-29T12:52:01.733Z,2292
2018-11-29T12:53:11.908Z,2244
2018-11-29T12:54:21.742Z,2304
2018-11-29T12:55:31.850Z,2340
2018-11-29T12:56:41.170Z,2312
2018-11-29T12:58:07.178Z,2196
2018-11-29T12:59:17.277Z,2192
2018-11-29T13:00:27.381Z,2408
2018-11-29T13:01:36.696Z,2464
2018-11-29T13:02:48.111Z,2504
2018-11-29T13:03:58.215Z,2516
2018-11-29T13:05:08.070Z,2496
2018-11-29T13:06:18.166Z,2544
2018-11-29T13:07:28.003Z,2684
2018-11-29T13:08:37.841Z,2780
2018-11-29T13:09:47.693Z,2896
2018-11-29T13:10:57.535Z,3004
2018-11-29T13:12:07.411Z,3080
2018-11-29T13:13:17.295Z,3140
2018-11-29T13:14:27.294Z,3172
2018-11-29T13:15:37.201Z,3144
2018-11-29T13:16:47.303Z,3064
2018-11-29T13:17:57.205Z,2964
2018-11-29T13:19:06.823Z,2928
2018-11-29T13:20:16.662Z,2908
2018-11-29T13:21:26.520Z,2884
2018-11-29T13:22:36.171Z,2864
2018-11-29T13:23:46.020Z,2792
2018-11-29T13:24:55.865Z,2724
2018-11-29T13:26:05.711Z,2660
2018-11-29T13:27:15.816Z,2576
2018-11-29T13:28:25.660Z,2484
2018-11-29T13:29:35.792Z,2392
2018-11-29T13:30:45.424Z,2292
2018-11-29T13:31:55.320Z,2196
2018-11-29T13:33:05.162Z,2092
2018-11-29T13:34:15.267Z,1988
2018-11-29T13:35:24.912Z,1892
2018-11-29T13:36:35.015Z,1792
2018-11-29T13:37:45.122Z,1700
2018-11-29T13:38:54.298Z,1620
2018-11-29T13:40:04.508Z,1548
2018-11-29T13:41:14.365Z,1496
2018-11-29T13:42:24.215Z,1472
2018-11-29T13:43:34.318Z,1468
2018-11-29T13:44:44.429Z,1484
2018-11-29T13:45:54.590Z,1488
2018-11-29T13:47:04.806Z,1472
2018-11-29T13:48:14.139Z,1448
2018-11-29T13:49:23.735Z,1412
2018-11-29T13:50:33.469Z,1384
2018-11-29T13:51:43.047Z,1344
2018-11-29T13:52:53.155Z,1284
2018-11-29T13:54:03.623Z,1212
2018-11-29T13:55:13.792Z,1132
2018-11-29T13:56:23.554Z,1052
2018-11-29T13:57:33.496Z,960
2018-11-29T13:58:43.336Z,884
2018-11-29T13:59:52.918Z,844
2018-11-29T14:01:02.755Z,840
2018-11-29T14:02:12.693Z,844
2018-11-29T14:03:22.677Z,832
2018-11-29T14:04:32.249Z,808
2018-11-29T14:05:42.099Z,776
2018-11-29T14:06:51.673Z,760
2018-11-29T14:08:01.560Z,768
2018-11-29T14:09:11.398Z,744
2018-11-29T14:10:21.037Z,712
2018-11-29T14:11:30.876Z,696
2018-11-29T14:12:40.973Z,688
2018-11-29T14:13:50.815Z,656
2018-11-29T14:15:00.387Z,624
2018-11-29T14:16:09.965Z,600
2018-11-29T14:17:20.130Z,572
2018-11-29T14:18:29.992Z,544
2018-11-29T14:19:40.101Z,524
2018-11-29T14:20:49.410Z,504
2018-11-29T14:21:59.617Z,472
2018-11-29T14:23:09.500Z,452
2018-11-29T14:24:19.094Z,440
2018-11-29T14:25:28.977Z,436
2018-11-29T14:26:38.816Z,416
2018-11-29T14:27:48.458Z,396
2018-11-29T14:28:57.802Z,380
2018-11-29T14:30:07.229Z,356
2018-11-29T14:31:17.062Z,324
2018-11-29T14:32:26.898Z,304
2018-11-29T14:33:37.159Z,288
2018-11-29T14:34:51.566Z,288
2018-11-29T14:36:01.790Z,300
2018-11-29T14:37:11.899Z,308
2018-11-29T14:38:21.261Z,300
2018-11-29T14:39:30.635Z,272
2018-11-29T14:40:40.471Z,244
2018-11-29T14:41:49.532Z,220
2018-11-29T14:42:59.429Z,204
2018-11-29T14:44:09.534Z,192
2018-11-29T14:45:19.123Z,192
2018-11-29T14:46:28.699Z,184
2018-11-29T14:47:38.841Z,176
2018-11-29T14:48:48.678Z,168
2018-11-29T14:49:58.513Z,164
2018-11-29T14:51:09.920Z,160
2018-11-29T14:52:19.506Z,148
2018-11-29T14:53:29.086Z,132
2018-11-29T14:54:38.924Z,116
2018-11-29T14:55:48.606Z,108
2018-11-29T14:56:58.812Z,100
2018-11-29T14:58:08.656Z,92
2018-11-29T14:59:18.499Z,88
2018-11-29T15:00:28.596Z,80
2018-11-29T15:01:38.439Z,72
2018-11-29T15:02:47.762Z,68
2018-11-29T15:03:57.336Z,68
2018-11-29T15:05:10.323Z,64
2018-11-29T15:06:20.158Z,60
2018-11-29T15:07:30.252Z,56
2018-11-29T15:08:40.359Z,52
2018-11-29T15:09:50.194Z,48
2018-11-29T15:10:59.766Z,48
2018-11-29T15:12:09.919Z,48
2018-11-29T15:13:19.238Z,44
2018-11-29T15:14:29.073Z,40
2018-11-29T15:15:38.912Z,40
2018-11-29T15:16:48.491Z,36
2018-11-29T15:17:58.603Z,32
2018-11-29T15:19:07.666Z,32
2018-11-29T15:20:17.247Z,32
2018-11-29T15:21:27.339Z,28
2018-11-29T15:22:37.436Z,24
2018-11-29T15:23:47.272Z,20
2018-11-29T15:24:56.843Z,20
2018-11-29T15:26:06.417Z,16
2018-11-29T15:27:16.257Z,12
2018-11-29T15:28:26.105Z,12
2018-11-29T15:29:35.945Z,8
2018-11-29T15:30:46.048Z,8
2018-11-29T15:31:55.632Z,4
2018-11-29T15:33:05.236Z,8
2018-11-29T15:34:14.819Z,4
2018-11-29T15:35:24.710Z,4
2018-11-29T15:36:34.817Z,4
2018-11-29T15:37:44.936Z,0
2018-11-29T15:38:54.779Z,4
2018-11-29T15:40:04.668Z,4
2018-11-29T15:41:18.090Z,0
2018-11-29T15:42:28.125Z,0
2018-11-29T15:43:37.700Z,0
2018-11-29T15:44:47.276Z,0
2018-11-29T15:45:56.865Z,0
2018-11-29T15:47:06.485Z,0
2018-11-29T15:48:16.323Z,0
2018-11-29T15:49:26.156Z,0
2018-11-29T15:50:35.727Z,0
2018-11-29T15:51:44.788Z,0
2018-11-29T15:52:54.619Z,0
2018-11-29T15:54:04.203Z,0
2018-11-29T15:55:13.860Z,0
2018-11-29T15:56:23.702Z,0
2018-11-29T15:57:40.050Z,0
2018-11-29T15:58:50.020Z,0
2018-11-29T15:59:59.857Z,0
2018-11-29T16:01:09.719Z,0
2018-11-29T16:02:19.039Z,0
2018-11-29T16:03:29.141Z,0
2018-11-29T16:04:38.458Z,0
2018-11-29T16:05:48.356Z,0
2018-11-29T16:06:58.454Z,0
2018-11-29T16:08:08.294Z,0
2018-11-29T16:09:18.129Z,0
2018-11-29T16:10:27.515Z,0
2018-11-29T16:11:37.351Z,0
2018-11-29T16:12:46.938Z,0
2018-11-29T16:13:56.518Z,0
2018-11-29T16:15:06.671Z,0
2018-11-29T16:16:16.504Z,0
2018-11-29T16:17:26.341Z,0
2018-11-29T16:18:36.435Z,0
2018-11-29T16:19:45.745Z,0
2018-11-29T16:20:55.875Z,0
2018-11-29T16:22:05.712Z,0
2018-11-29T16:23:15.816Z,0
2018-11-29T16:24:25.647Z,0